sensor_id;sensor_type;location;lat;lon;timestamp;temperature;humidity
67549;DHT22;54382;53.524;49.326;2022-08-19T00:01:50;23.90;30.80
67549;DHT22;54382;53.524;49.326;2022-08-19T00:04:20;23.80;30.80
67549;DHT22;54382;53.524;49.326;2022-08-19T00:06:48;23.80;30.90
67549;DHT22;54382;53.524;49.326;2022-08-19T00:09:17;23.80;30.90
67549;DHT22;54382;53.524;49.326;2022-08-19T00:11:45;23.70;30.90
67549;DHT22;54382;53.524;49.326;2022-08-19T00:14:16;23.70;31.10
67549;DHT22;54382;53.524;49.326;2022-08-19T00:16:45;23.70;30.90
67549;DHT22;54382;53.524;49.326;2022-08-19T00:19:14;23.70;30.70
67549;DHT22;54382;53.524;49.326;2022-08-19T00:21:42;23.70;30.70
67549;DHT22;54382;53.524;49.326;2022-08-19T00:24:10;23.60;30.60
67549;DHT22;54382;53.524;49.326;2022-08-19T00:26:38;23.60;30.70
67549;DHT22;54382;53.524;49.326;2022-08-19T00:29:08;23.50;30.60
67549;DHT22;54382;53.524;49.326;2022-08-19T00:31:36;23.50;30.70
67549;DHT22;54382;53.524;49.326;2022-08-19T00:34:02;23.40;30.80
67549;DHT22;54382;53.524;49.326;2022-08-19T00:36:29;23.40;30.80
67549;DHT22;54382;53.524;49.326;2022-08-19T00:38:58;23.40;30.50
67549;DHT22;54382;53.524;49.326;2022-08-19T00:41:25;23.40;30.60
67549;DHT22;54382;53.524;49.326;2022-08-19T00:46:36;23.30;30.70
67549;DHT22;54382;53.524;49.326;2022-08-19T00:49:14;23.30;30.50
67549;DHT22;54382;53.524;49.326;2022-08-19T00:52:06;23.30;30.60
67549;DHT22;54382;53.524;49.326;2022-08-19T00:54:37;23.30;30.50
67549;DHT22;54382;53.524;49.326;2022-08-19T00:57:10;23.20;30.50
67549;DHT22;54382;53.524;49.326;2022-08-19T00:59:40;23.10;30.60
67549;DHT22;54382;53.524;49.326;2022-08-19T01:02:08;23.00;30.80
67549;DHT22;54382;53.524;49.326;2022-08-19T01:04:34;23.00;30.90
67549;DHT22;54382;53.524;49.326;2022-08-19T01:07:01;22.90;30.90
67549;DHT22;54382;53.524;49.326;2022-08-19T01:09:29;22.90;30.90
67549;DHT22;54382;53.524;49.326;2022-08-19T01:11:57;22.90;31.10
67549;DHT22;54382;53.524;49.326;2022-08-19T01:14:24;22.80;31.10
67549;DHT22;54382;53.524;49.326;2022-08-19T01:16:52;22.80;31.10
67549;DHT22;54382;53.524;49.326;2022-08-19T01:19:33;22.80;31.20
67549;DHT22;54382;53.524;49.326;2022-08-19T01:22:12;22.70;31.30
67549;DHT22;54382;53.524;49.326;2022-08-19T01:25:01;22.80;31.30
67549;DHT22;54382;53.524;49.326;2022-08-19T01:27:41;22.80;31.30
67549;DHT22;54382;53.524;49.326;2022-08-19T01:30:11;22.70;31.40
67549;DHT22;54382;53.524;49.326;2022-08-19T01:32:39;22.70;31.40
67549;DHT22;54382;53.524;49.326;2022-08-19T01:35:06;22.70;31.50
67549;DHT22;54382;53.524;49.326;2022-08-19T01:37:48;22.60;31.50
67549;DHT22;54382;53.524;49.326;2022-08-19T01:40:18;22.60;31.70
67549;DHT22;54382;53.524;49.326;2022-08-19T01:42:50;22.60;31.60
67549;DHT22;54382;53.524;49.326;2022-08-19T01:45:18;22.60;31.50
67549;DHT22;54382;53.524;49.326;2022-08-19T01:47:46;22.60;31.60
67549;DHT22;54382;53.524;49.326;2022-08-19T01:50:13;22.60;31.50
67549;DHT22;54382;53.524;49.326;2022-08-19T01:52:41;22.60;31.50
67549;DHT22;54382;53.524;49.326;2022-08-19T01:55:11;22.60;31.80
67549;DHT22;54382;53.524;49.326;2022-08-19T01:57:44;22.60;32.30
67549;DHT22;54382;53.524;49.326;2022-08-19T02:00:16;22.70;32.00
67549;DHT22;54382;53.524;49.326;2022-08-19T02:02:43;22.90;31.20
67549;DHT22;54382;53.524;49.326;2022-08-19T02:05:11;23.10;30.90
67549;DHT22;54382;53.524;49.326;2022-08-19T02:07:39;23.30;30.70
67549;DHT22;54382;53.524;49.326;2022-08-19T02:10:13;23.40;30.40
67549;DHT22;54382;53.524;49.326;2022-08-19T02:12:42;23.60;30.20
67549;DHT22;54382;53.524;49.326;2022-08-19T02:15:09;23.80;30.60
67549;DHT22;54382;53.524;49.326;2022-08-19T02:17:36;23.90;29.70
67549;DHT22;54382;53.524;49.326;2022-08-19T02:20:03;24.10;29.70
67549;DHT22;54382;53.524;49.326;2022-08-19T02:22:32;24.30;29.50
67549;DHT22;54382;53.524;49.326;2022-08-19T02:24:59;24.40;29.40
67549;DHT22;54382;53.524;49.326;2022-08-19T02:27:25;24.60;29.30
67549;DHT22;54382;53.524;49.326;2022-08-19T02:29:52;24.70;29.10
67549;DHT22;54382;53.524;49.326;2022-08-19T02:32:19;24.80;28.80
67549;DHT22;54382;53.524;49.326;2022-08-19T02:34:47;24.90;28.60
67549;DHT22;54382;53.524;49.326;2022-08-19T02:37:14;25.00;28.50
67549;DHT22;54382;53.524;49.326;2022-08-19T02:39:59;25.10;28.40
67549;DHT22;54382;53.524;49.326;2022-08-19T02:42:26;25.20;28.10
67549;DHT22;54382;53.524;49.326;2022-08-19T02:44:55;25.30;28.10
67549;DHT22;54382;53.524;49.326;2022-08-19T02:47:22;25.40;27.70
67549;DHT22;54382;53.524;49.326;2022-08-19T02:49:49;25.40;27.60
67549;DHT22;54382;53.524;49.326;2022-08-19T02:52:16;25.50;27.80
67549;DHT22;54382;53.524;49.326;2022-08-19T02:54:43;25.70;27.70
67549;DHT22;54382;53.524;49.326;2022-08-19T02:57:10;25.70;27.60
67549;DHT22;54382;53.524;49.326;2022-08-19T02:59:36;25.90;27.30
67549;DHT22;54382;53.524;49.326;2022-08-19T03:02:03;26.00;27.50
67549;DHT22;54382;53.524;49.326;2022-08-19T03:04:30;26.10;27.60
67549;DHT22;54382;53.524;49.326;2022-08-19T03:06:56;26.20;27.70
67549;DHT22;54382;53.524;49.326;2022-08-19T03:09:23;26.20;27.50
67549;DHT22;54382;53.524;49.326;2022-08-19T03:11:50;26.30;27.40
67549;DHT22;54382;53.524;49.326;2022-08-19T03:14:16;26.40;27.40
67549;DHT22;54382;53.524;49.326;2022-08-19T03:16:49;26.40;27.40
67549;DHT22;54382;53.524;49.326;2022-08-19T03:19:18;26.50;27.40
67549;DHT22;54382;53.524;49.326;2022-08-19T03:21:47;26.60;27.40
67549;DHT22;54382;53.524;49.326;2022-08-19T03:24:15;26.60;27.40
67549;DHT22;54382;53.524;49.326;2022-08-19T03:26:46;26.60;27.40
67549;DHT22;54382;53.524;49.326;2022-08-19T03:29:14;26.70;27.50
67549;DHT22;54382;53.524;49.326;2022-08-19T03:31:43;26.70;27.50
67549;DHT22;54382;53.524;49.326;2022-08-19T03:34:15;26.70;27.50
67549;DHT22;54382;53.524;49.326;2022-08-19T03:36:47;26.70;27.50
67549;DHT22;54382;53.524;49.326;2022-08-19T03:39:14;26.70;27.50
67549;DHT22;54382;53.524;49.326;2022-08-19T03:41:43;26.80;27.70
67549;DHT22;54382;53.524;49.326;2022-08-19T03:44:10;26.80;27.80
67549;DHT22;54382;53.524;49.326;2022-08-19T03:46:37;26.80;27.80
67549;DHT22;54382;53.524;49.326;2022-08-19T03:49:04;26.80;27.80
67549;DHT22;54382;53.524;49.326;2022-08-19T03:51:37;26.90;27.90
67549;DHT22;54382;53.524;49.326;2022-08-19T03:54:08;26.90;27.90
67549;DHT22;54382;53.524;49.326;2022-08-19T03:56:37;26.80;28.00
67549;DHT22;54382;53.524;49.326;2022-08-19T03:59:07;26.90;28.10
67549;DHT22;54382;53.524;49.326;2022-08-19T04:01:39;26.90;28.10
67549;DHT22;54382;53.524;49.326;2022-08-19T04:04:05;27.00;28.30
67549;DHT22;54382;53.524;49.326;2022-08-19T04:06:34;27.00;28.30
67549;DHT22;54382;53.524;49.326;2022-08-19T04:09:04;27.10;28.30
67549;DHT22;54382;53.524;49.326;2022-08-19T04:11:37;27.20;28.40
67549;DHT22;54382;53.524;49.326;2022-08-19T04:14:15;27.30;28.40
67549;DHT22;54382;53.524;49.326;2022-08-19T04:16:44;27.40;28.50
67549;DHT22;54382;53.524;49.326;2022-08-19T04:19:13;27.60;28.30
67549;DHT22;54382;53.524;49.326;2022-08-19T04:21:44;27.80;28.10
67549;DHT22;54382;53.524;49.326;2022-08-19T04:24:13;28.00;28.20
67549;DHT22;54382;53.524;49.326;2022-08-19T04:26:40;28.20;28.10
67549;DHT22;54382;53.524;49.326;2022-08-19T04:29:15;28.40;27.90
67549;DHT22;54382;53.524;49.326;2022-08-19T04:31:45;28.50;27.80
67549;DHT22;54382;53.524;49.326;2022-08-19T04:34:14;28.70;27.80
67549;DHT22;54382;53.524;49.326;2022-08-19T04:36:43;28.80;27.60
67549;DHT22;54382;53.524;49.326;2022-08-19T04:39:15;28.90;28.00
67549;DHT22;54382;53.524;49.326;2022-08-19T04:41:44;29.10;27.70
67549;DHT22;54382;53.524;49.326;2022-08-19T04:44:34;29.20;27.70
67549;DHT22;54382;53.524;49.326;2022-08-19T04:47:02;29.50;27.40
67549;DHT22;54382;53.524;49.326;2022-08-19T04:49:32;29.70;27.10
67549;DHT22;54382;53.524;49.326;2022-08-19T04:52:00;30.00;26.90
67549;DHT22;54382;53.524;49.326;2022-08-19T04:54:26;30.30;27.10
67549;DHT22;54382;53.524;49.326;2022-08-19T04:56:53;30.50;26.50
67549;DHT22;54382;53.524;49.326;2022-08-19T04:59:21;30.60;26.10
67549;DHT22;54382;53.524;49.326;2022-08-19T05:01:48;30.80;26.20
67549;DHT22;54382;53.524;49.326;2022-08-19T05:04:18;30.90;26.40
67549;DHT22;54382;53.524;49.326;2022-08-19T05:06:47;31.10;26.40
67549;DHT22;54382;53.524;49.326;2022-08-19T05:09:15;31.20;26.20
67549;DHT22;54382;53.524;49.326;2022-08-19T05:11:43;31.30;26.10
67549;DHT22;54382;53.524;49.326;2022-08-19T05:14:10;31.60;26.00
67549;DHT22;54382;53.524;49.326;2022-08-19T05:16:41;31.80;25.90
67549;DHT22;54382;53.524;49.326;2022-08-19T05:19:08;32.00;25.70
67549;DHT22;54382;53.524;49.326;2022-08-19T05:21:54;32.10;25.70
67549;DHT22;54382;53.524;49.326;2022-08-19T05:24:39;32.30;25.40
67549;DHT22;54382;53.524;49.326;2022-08-19T05:27:05;32.40;25.50
67549;DHT22;54382;53.524;49.326;2022-08-19T05:29:33;32.60;25.10
67549;DHT22;54382;53.524;49.326;2022-08-19T05:32:01;32.70;25.20
67549;DHT22;54382;53.524;49.326;2022-08-19T05:34:31;32.70;25.20
67549;DHT22;54382;53.524;49.326;2022-08-19T05:37:00;32.80;24.90
67549;DHT22;54382;53.524;49.326;2022-08-19T05:39:30;32.90;24.90
67549;DHT22;54382;53.524;49.326;2022-08-19T05:42:00;32.90;25.00
67549;DHT22;54382;53.524;49.326;2022-08-19T05:44:35;32.80;24.90
67549;DHT22;54382;53.524;49.326;2022-08-19T05:47:09;32.80;24.90
67549;DHT22;54382;53.524;49.326;2022-08-19T05:49:37;32.70;25.20
67549;DHT22;54382;53.524;49.326;2022-08-19T05:52:06;32.80;25.10
67549;DHT22;54382;53.524;49.326;2022-08-19T05:54:40;32.80;25.30
67549;DHT22;54382;53.524;49.326;2022-08-19T05:57:08;33.00;25.20
67549;DHT22;54382;53.524;49.326;2022-08-19T05:59:35;33.10;24.90
67549;DHT22;54382;53.524;49.326;2022-08-19T06:02:04;33.20;25.20
67549;DHT22;54382;53.524;49.326;2022-08-19T06:04:31;33.30;25.00
67549;DHT22;54382;53.524;49.326;2022-08-19T06:06:58;33.40;25.00
67549;DHT22;54382;53.524;49.326;2022-08-19T06:09:25;33.60;25.00
67549;DHT22;54382;53.524;49.326;2022-08-19T06:11:54;33.70;24.70
67549;DHT22;54382;53.524;49.326;2022-08-19T06:14:28;33.80;24.60
67549;DHT22;54382;53.524;49.326;2022-08-19T06:16:57;33.70;24.60
67549;DHT22;54382;53.524;49.326;2022-08-19T06:19:28;33.70;24.80
67549;DHT22;54382;53.524;49.326;2022-08-19T06:21:57;33.70;24.50
67549;DHT22;54382;53.524;49.326;2022-08-19T06:24:27;33.80;24.70
67549;DHT22;54382;53.524;49.326;2022-08-19T06:26:56;33.80;24.60
67549;DHT22;54382;53.524;49.326;2022-08-19T06:29:25;33.70;24.40
67549;DHT22;54382;53.524;49.326;2022-08-19T06:31:55;33.60;24.70
67549;DHT22;54382;53.524;49.326;2022-08-19T06:34:26;33.50;25.00
67549;DHT22;54382;53.524;49.326;2022-08-19T06:36:55;33.70;25.20
67549;DHT22;54382;53.524;49.326;2022-08-19T06:39:27;33.80;25.20
67549;DHT22;54382;53.524;49.326;2022-08-19T06:41:58;33.80;24.80
67549;DHT22;54382;53.524;49.326;2022-08-19T06:44:28;34.00;24.80
67549;DHT22;54382;53.524;49.326;2022-08-19T06:47:02;34.10;24.80
67549;DHT22;54382;53.524;49.326;2022-08-19T06:49:30;34.20;24.50
67549;DHT22;54382;53.524;49.326;2022-08-19T06:51:57;34.40;24.30
67549;DHT22;54382;53.524;49.326;2022-08-19T06:54:25;34.50;24.30
67549;DHT22;54382;53.524;49.326;2022-08-19T06:56:52;34.70;24.40
67549;DHT22;54382;53.524;49.326;2022-08-19T06:59:21;34.70;24.20
67549;DHT22;54382;53.524;49.326;2022-08-19T07:01:53;34.70;24.50
67549;DHT22;54382;53.524;49.326;2022-08-19T07:04:24;34.80;24.30
67549;DHT22;54382;53.524;49.326;2022-08-19T07:07:05;34.80;24.50
67549;DHT22;54382;53.524;49.326;2022-08-19T07:09:37;34.90;24.10
67549;DHT22;54382;53.524;49.326;2022-08-19T07:12:07;34.90;23.80
67549;DHT22;54382;53.524;49.326;2022-08-19T07:14:35;34.80;23.90
67549;DHT22;54382;53.524;49.326;2022-08-19T07:17:06;34.80;24.00
67549;DHT22;54382;53.524;49.326;2022-08-19T07:19:35;34.90;24.10
67549;DHT22;54382;53.524;49.326;2022-08-19T07:22:04;34.90;24.00
67549;DHT22;54382;53.524;49.326;2022-08-19T07:24:33;34.90;24.00
67549;DHT22;54382;53.524;49.326;2022-08-19T07:27:01;35.00;24.10
67549;DHT22;54382;53.524;49.326;2022-08-19T07:29:30;35.00;23.70
67549;DHT22;54382;53.524;49.326;2022-08-19T07:32:00;35.10;23.60
67549;DHT22;54382;53.524;49.326;2022-08-19T07:34:28;35.20;23.60
67549;DHT22;54382;53.524;49.326;2022-08-19T07:36:56;35.30;23.60
67549;DHT22;54382;53.524;49.326;2022-08-19T07:39:27;35.30;23.50
67549;DHT22;54382;53.524;49.326;2022-08-19T07:41:57;35.40;23.60
67549;DHT22;54382;53.524;49.326;2022-08-19T07:44:25;35.50;23.70
67549;DHT22;54382;53.524;49.326;2022-08-19T07:46:54;35.60;23.50
67549;DHT22;54382;53.524;49.326;2022-08-19T07:49:22;35.70;23.50
67549;DHT22;54382;53.524;49.326;2022-08-19T07:51:53;35.70;23.30
67549;DHT22;54382;53.524;49.326;2022-08-19T07:54:23;35.70;23.30
67549;DHT22;54382;53.524;49.326;2022-08-19T07:56:50;35.70;23.30
67549;DHT22;54382;53.524;49.326;2022-08-19T07:59:21;35.80;23.20
67549;DHT22;54382;53.524;49.326;2022-08-19T08:01:50;35.90;23.10
67549;DHT22;54382;53.524;49.326;2022-08-19T08:04:18;36.00;23.20
67549;DHT22;54382;53.524;49.326;2022-08-19T08:07:14;36.00;23.20
67549;DHT22;54382;53.524;49.326;2022-08-19T08:10:00;36.10;22.90
67549;DHT22;54382;53.524;49.326;2022-08-19T08:12:34;36.00;23.10
67549;DHT22;54382;53.524;49.326;2022-08-19T08:15:08;36.00;22.80
67549;DHT22;54382;53.524;49.326;2022-08-19T08:17:37;36.10;22.90
67549;DHT22;54382;53.524;49.326;2022-08-19T08:20:06;36.20;22.80
67549;DHT22;54382;53.524;49.326;2022-08-19T08:22:33;36.40;22.50
67549;DHT22;54382;53.524;49.326;2022-08-19T08:25:21;36.40;22.50
67549;DHT22;54382;53.524;49.326;2022-08-19T08:27:49;36.50;22.60
67549;DHT22;54382;53.524;49.326;2022-08-19T08:30:21;36.50;22.60
67549;DHT22;54382;53.524;49.326;2022-08-19T08:32:51;36.60;22.40
67549;DHT22;54382;53.524;49.326;2022-08-19T08:35:20;36.60;23.10
67549;DHT22;54382;53.524;49.326;2022-08-19T08:37:50;36.70;22.40
67549;DHT22;54382;53.524;49.326;2022-08-19T08:40:37;36.80;22.40
67549;DHT22;54382;53.524;49.326;2022-08-19T08:43:34;36.90;22.60
67549;DHT22;54382;53.524;49.326;2022-08-19T08:46:08;36.90;22.20
67549;DHT22;54382;53.524;49.326;2022-08-19T08:54:44;37.30;22.20
67549;DHT22;54382;53.524;49.326;2022-08-19T09:00:07;37.40;22.00
67549;DHT22;54382;53.524;49.326;2022-08-19T09:02:36;37.40;21.60
67549;DHT22;54382;53.524;49.326;2022-08-19T09:05:04;37.50;21.60
67549;DHT22;54382;53.524;49.326;2022-08-19T09:10:59;37.50;21.60
67549;DHT22;54382;53.524;49.326;2022-08-19T09:13:45;37.60;21.60
67549;DHT22;54382;53.524;49.326;2022-08-19T09:16:21;37.70;21.50
67549;DHT22;54382;53.524;49.326;2022-08-19T09:18:56;37.80;21.60
67549;DHT22;54382;53.524;49.326;2022-08-19T09:21:25;37.90;21.20
67549;DHT22;54382;53.524;49.326;2022-08-19T09:23:55;37.90;21.10
67549;DHT22;54382;53.524;49.326;2022-08-19T09:26:24;37.80;21.20
67549;DHT22;54382;53.524;49.326;2022-08-19T09:28:52;37.80;21.20
67549;DHT22;54382;53.524;49.326;2022-08-19T09:31:23;37.80;21.50
67549;DHT22;54382;53.524;49.326;2022-08-19T09:33:52;37.80;21.30
67549;DHT22;54382;53.524;49.326;2022-08-19T09:36:23;37.80;21.20
67549;DHT22;54382;53.524;49.326;2022-08-19T09:38:53;37.80;21.10
67549;DHT22;54382;53.524;49.326;2022-08-19T09:41:21;37.80;21.10
67549;DHT22;54382;53.524;49.326;2022-08-19T09:43:53;37.70;21.10
67549;DHT22;54382;53.524;49.326;2022-08-19T09:46:26;37.60;21.20
67549;DHT22;54382;53.524;49.326;2022-08-19T09:48:54;37.70;21.10
67549;DHT22;54382;53.524;49.326;2022-08-19T09:51:24;37.70;21.40
67549;DHT22;54382;53.524;49.326;2022-08-19T09:53:54;37.70;21.60
67549;DHT22;54382;53.524;49.326;2022-08-19T09:56:24;37.80;21.30
67549;DHT22;54382;53.524;49.326;2022-08-19T09:58:51;37.90;21.20
67549;DHT22;54382;53.524;49.326;2022-08-19T10:01:29;38.10;21.30
67549;DHT22;54382;53.524;49.326;2022-08-19T10:03:58;38.20;21.30
67549;DHT22;54382;53.524;49.326;2022-08-19T10:06:29;38.30;21.00
67549;DHT22;54382;53.524;49.326;2022-08-19T10:08:59;38.30;21.20
67549;DHT22;54382;53.524;49.326;2022-08-19T10:11:26;38.40;21.00
67549;DHT22;54382;53.524;49.326;2022-08-19T10:13:53;38.50;20.50
67549;DHT22;54382;53.524;49.326;2022-08-19T10:16:22;38.50;20.40
67549;DHT22;54382;53.524;49.326;2022-08-19T10:18:50;38.50;20.50
67549;DHT22;54382;53.524;49.326;2022-08-19T10:21:23;38.50;20.50
67549;DHT22;54382;53.524;49.326;2022-08-19T10:23:56;38.50;20.40
67549;DHT22;54382;53.524;49.326;2022-08-19T10:26:27;38.50;20.30
67549;DHT22;54382;53.524;49.326;2022-08-19T10:28:56;38.50;20.40
67549;DHT22;54382;53.524;49.326;2022-08-19T10:31:29;38.40;20.40
67549;DHT22;54382;53.524;49.326;2022-08-19T10:33:56;38.40;20.70
67549;DHT22;54382;53.524;49.326;2022-08-19T10:36:26;38.40;20.60
67549;DHT22;54382;53.524;49.326;2022-08-19T10:39:00;38.40;20.40
67549;DHT22;54382;53.524;49.326;2022-08-19T10:41:31;38.40;20.60
67549;DHT22;54382;53.524;49.326;2022-08-19T10:44:07;38.50;20.30
67549;DHT22;54382;53.524;49.326;2022-08-19T10:46:43;38.60;19.90
67549;DHT22;54382;53.524;49.326;2022-08-19T10:49:13;38.70;19.80
67549;DHT22;54382;53.524;49.326;2022-08-19T10:51:40;38.80;19.70
67549;DHT22;54382;53.524;49.326;2022-08-19T10:54:27;38.90;19.60
67549;DHT22;54382;53.524;49.326;2022-08-19T10:57:14;39.00;19.60
67549;DHT22;54382;53.524;49.326;2022-08-19T10:59:41;39.10;19.60
67549;DHT22;54382;53.524;49.326;2022-08-19T11:02:10;39.20;19.70
67549;DHT22;54382;53.524;49.326;2022-08-19T11:04:39;39.20;19.70
67549;DHT22;54382;53.524;49.326;2022-08-19T11:07:06;39.20;19.50
67549;DHT22;54382;53.524;49.326;2022-08-19T11:09:40;39.20;19.50
67549;DHT22;54382;53.524;49.326;2022-08-19T11:12:08;39.30;19.40
67549;DHT22;54382;53.524;49.326;2022-08-19T11:14:36;39.30;19.60
67549;DHT22;54382;53.524;49.326;2022-08-19T11:17:04;39.40;19.70
67549;DHT22;54382;53.524;49.326;2022-08-19T11:19:31;39.40;19.70
67549;DHT22;54382;53.524;49.326;2022-08-19T11:21:59;39.40;19.50
67549;DHT22;54382;53.524;49.326;2022-08-19T11:24:27;39.40;19.40
67549;DHT22;54382;53.524;49.326;2022-08-19T11:27:01;39.40;19.40
67549;DHT22;54382;53.524;49.326;2022-08-19T11:29:31;39.30;19.50
67549;DHT22;54382;53.524;49.326;2022-08-19T11:31:58;39.20;19.50
67549;DHT22;54382;53.524;49.326;2022-08-19T11:34:28;39.10;19.70
67549;DHT22;54382;53.524;49.326;2022-08-19T11:36:56;39.10;19.80
67549;DHT22;54382;53.524;49.326;2022-08-19T11:39:25;39.00;19.90
67549;DHT22;54382;53.524;49.326;2022-08-19T11:41:53;39.00;19.80
67549;DHT22;54382;53.524;49.326;2022-08-19T11:44:20;39.00;19.60
67549;DHT22;54382;53.524;49.326;2022-08-19T11:46:46;39.10;19.20
67549;DHT22;54382;53.524;49.326;2022-08-19T11:49:19;39.20;18.90
67549;DHT22;54382;53.524;49.326;2022-08-19T11:51:48;39.30;19.00
67549;DHT22;54382;53.524;49.326;2022-08-19T11:54:17;39.30;18.80
67549;DHT22;54382;53.524;49.326;2022-08-19T11:56:44;39.30;19.20
67549;DHT22;54382;53.524;49.326;2022-08-19T11:59:13;39.20;19.30
67549;DHT22;54382;53.524;49.326;2022-08-19T12:01:39;39.20;19.40
67549;DHT22;54382;53.524;49.326;2022-08-19T12:04:08;39.10;19.40
67549;DHT22;54382;53.524;49.326;2022-08-19T12:06:39;39.10;19.00
67549;DHT22;54382;53.524;49.326;2022-08-19T12:09:08;39.10;18.70
67549;DHT22;54382;53.524;49.326;2022-08-19T12:11:35;39.10;18.90
67549;DHT22;54382;53.524;49.326;2022-08-19T12:14:04;39.20;18.80
67549;DHT22;54382;53.524;49.326;2022-08-19T12:17:09;39.20;18.80
67549;DHT22;54382;53.524;49.326;2022-08-19T12:20:18;39.20;18.80
67549;DHT22;54382;53.524;49.326;2022-08-19T12:22:44;39.30;18.40
67549;DHT22;54382;53.524;49.326;2022-08-19T12:25:12;39.30;18.30
67549;DHT22;54382;53.524;49.326;2022-08-19T12:27:39;39.30;18.30
67549;DHT22;54382;53.524;49.326;2022-08-19T12:30:08;39.30;18.50
67549;DHT22;54382;53.524;49.326;2022-08-19T12:32:37;39.10;18.80
67549;DHT22;54382;53.524;49.326;2022-08-19T12:35:05;39.10;18.70
67549;DHT22;54382;53.524;49.326;2022-08-19T12:37:32;39.00;18.50
67549;DHT22;54382;53.524;49.326;2022-08-19T12:39:59;39.00;18.30
67549;DHT22;54382;53.524;49.326;2022-08-19T12:42:26;39.10;18.30
67549;DHT22;54382;53.524;49.326;2022-08-19T12:44:53;39.10;18.20
67549;DHT22;54382;53.524;49.326;2022-08-19T12:47:20;39.20;18.30
67549;DHT22;54382;53.524;49.326;2022-08-19T12:49:48;39.10;18.30
67549;DHT22;54382;53.524;49.326;2022-08-19T12:52:15;39.00;18.40
67549;DHT22;54382;53.524;49.326;2022-08-19T12:54:42;38.90;18.50
67549;DHT22;54382;53.524;49.326;2022-08-19T12:57:10;38.80;18.80
67549;DHT22;54382;53.524;49.326;2022-08-19T12:59:38;38.80;18.90
67549;DHT22;54382;53.524;49.326;2022-08-19T13:02:06;38.60;18.90
67549;DHT22;54382;53.524;49.326;2022-08-19T13:04:34;38.50;19.10
67549;DHT22;54382;53.524;49.326;2022-08-19T13:07:02;38.30;19.00
67549;DHT22;54382;53.524;49.326;2022-08-19T13:09:29;38.40;19.00
67549;DHT22;54382;53.524;49.326;2022-08-19T13:11:55;38.40;19.00
67549;DHT22;54382;53.524;49.326;2022-08-19T13:14:22;38.40;19.00
67549;DHT22;54382;53.524;49.326;2022-08-19T13:16:49;38.40;19.10
67549;DHT22;54382;53.524;49.326;2022-08-19T13:19:15;38.30;19.20
67549;DHT22;54382;53.524;49.326;2022-08-19T13:21:50;38.20;19.20
67549;DHT22;54382;53.524;49.326;2022-08-19T13:24:17;38.00;19.30
67549;DHT22;54382;53.524;49.326;2022-08-19T13:26:44;38.00;19.30
67549;DHT22;54382;53.524;49.326;2022-08-19T13:29:11;37.90;19.10
67549;DHT22;54382;53.524;49.326;2022-08-19T13:31:56;37.80;19.10
67549;DHT22;54382;53.524;49.326;2022-08-19T13:34:41;37.60;19.10
67549;DHT22;54382;53.524;49.326;2022-08-19T13:37:08;37.60;18.90
67549;DHT22;54382;53.524;49.326;2022-08-19T13:39:35;37.60;18.60
67549;DHT22;54382;53.524;49.326;2022-08-19T13:42:02;37.70;18.80
67549;DHT22;54382;53.524;49.326;2022-08-19T13:44:30;37.80;18.90
67549;DHT22;54382;53.524;49.326;2022-08-19T13:47:05;37.80;18.90
67549;DHT22;54382;53.524;49.326;2022-08-19T13:49:34;37.80;19.00
67549;DHT22;54382;53.524;49.326;2022-08-19T13:52:04;37.70;19.00
67549;DHT22;54382;53.524;49.326;2022-08-19T13:54:31;37.70;19.20
67549;DHT22;54382;53.524;49.326;2022-08-19T13:56:58;37.60;19.00
67549;DHT22;54382;53.524;49.326;2022-08-19T13:59:24;37.60;18.90
67549;DHT22;54382;53.524;49.326;2022-08-19T14:01:51;37.50;18.90
67549;DHT22;54382;53.524;49.326;2022-08-19T14:04:19;37.40;18.80
67549;DHT22;54382;53.524;49.326;2022-08-19T14:06:45;37.40;18.80
67549;DHT22;54382;53.524;49.326;2022-08-19T14:09:12;37.40;18.60
67549;DHT22;54382;53.524;49.326;2022-08-19T14:11:38;37.40;18.50
67549;DHT22;54382;53.524;49.326;2022-08-19T14:14:05;37.40;18.70
67549;DHT22;54382;53.524;49.326;2022-08-19T14:16:32;37.30;18.80
67549;DHT22;54382;53.524;49.326;2022-08-19T14:18:58;37.10;18.90
67549;DHT22;54382;53.524;49.326;2022-08-19T14:21:25;37.00;19.00
67549;DHT22;54382;53.524;49.326;2022-08-19T14:23:53;36.90;18.70
67549;DHT22;54382;53.524;49.326;2022-08-19T14:26:22;36.80;18.80
67549;DHT22;54382;53.524;49.326;2022-08-19T14:28:49;36.70;19.00
67549;DHT22;54382;53.524;49.326;2022-08-19T14:31:18;36.50;19.10
67549;DHT22;54382;53.524;49.326;2022-08-19T14:33:46;36.30;19.00
67549;DHT22;54382;53.524;49.326;2022-08-19T14:36:14;36.20;19.00
67549;DHT22;54382;53.524;49.326;2022-08-19T14:38:41;36.00;19.50
67549;DHT22;54382;53.524;49.326;2022-08-19T14:41:18;36.00;19.40
67549;DHT22;54382;53.524;49.326;2022-08-19T14:43:48;35.80;19.10
67549;DHT22;54382;53.524;49.326;2022-08-19T14:46:19;35.70;19.40
67549;DHT22;54382;53.524;49.326;2022-08-19T14:48:48;35.50;19.30
67549;DHT22;54382;53.524;49.326;2022-08-19T14:51:15;35.40;19.50
67549;DHT22;54382;53.524;49.326;2022-08-19T14:53:42;35.20;19.40
67549;DHT22;54382;53.524;49.326;2022-08-19T14:56:12;35.10;19.60
67549;DHT22;54382;53.524;49.326;2022-08-19T14:58:41;34.90;19.60
67549;DHT22;54382;53.524;49.326;2022-08-19T15:01:09;34.70;19.50
67549;DHT22;54382;53.524;49.326;2022-08-19T15:03:37;34.60;19.60
67549;DHT22;54382;53.524;49.326;2022-08-19T15:06:07;34.40;19.70
67549;DHT22;54382;53.524;49.326;2022-08-19T15:08:37;34.30;19.80
67549;DHT22;54382;53.524;49.326;2022-08-19T15:11:11;34.20;19.70
67549;DHT22;54382;53.524;49.326;2022-08-19T15:13:43;34.00;19.80
67549;DHT22;54382;53.524;49.326;2022-08-19T15:16:13;34.00;19.80
67549;DHT22;54382;53.524;49.326;2022-08-19T15:18:43;33.90;19.90
67549;DHT22;54382;53.524;49.326;2022-08-19T15:21:12;33.70;19.80
67549;DHT22;54382;53.524;49.326;2022-08-19T15:23:40;33.70;20.00
67549;DHT22;54382;53.524;49.326;2022-08-19T15:26:07;33.50;20.00
67549;DHT22;54382;53.524;49.326;2022-08-19T15:28:34;33.40;20.10
67549;DHT22;54382;53.524;49.326;2022-08-19T15:31:01;33.30;20.20
67549;DHT22;54382;53.524;49.326;2022-08-19T15:33:28;33.10;20.20
67549;DHT22;54382;53.524;49.326;2022-08-19T15:35:57;33.00;20.30
67549;DHT22;54382;53.524;49.326;2022-08-19T15:38:25;32.90;20.40
67549;DHT22;54382;53.524;49.326;2022-08-19T15:40:52;32.70;20.50
67549;DHT22;54382;53.524;49.326;2022-08-19T15:43:41;32.60;20.60
67549;DHT22;54382;53.524;49.326;2022-08-19T15:46:07;32.50;20.80
67549;DHT22;54382;53.524;49.326;2022-08-19T15:48:34;32.30;20.80